sensor_id;sensor_type;location;lat;lon;timestamp;temperature;humidity
17333;DHT22;8784;50.94667800;7.08448400;2023-06-26T00:00:10;23.60;66.50
17333;DHT22;8784;50.94667800;7.08448400;2023-06-26T00:02:37;23.60;66.60
17333;DHT22;8784;50.94667800;7.08448400;2023-06-26T00:05:05;23.60;66.80
17333;DHT22;8784;50.94667800;7.08448400;2023-06-26T00:07:32;23.60;66.80
17333;DHT22;8784;50.94667800;7.08448400;2023-06-26T00:10:00;23.60;66.90
17333;DHT22;8784;50.94667800;7.08448400;2023-06-26T00:12:28;23.70;67.20
17333;DHT22;8784;50.94667800;7.08448400;2023-06-26T00:14:57;23.70;66.90
17333;DHT22;8784;50.94667800;7.08448400;2023-06-26T00:17:24;23.60;67.20
17333;DHT22;8784;50.94667800;7.08448400;2023-06-26T00:19:51;23.60;67.40
17333;DHT22;8784;50.94667800;7.08448400;2023-06-26T00:22:18;23.60;67.60
17333;DHT22;8784;50.94667800;7.08448400;2023-06-26T00:24:45;23.60;67.90
17333;DHT22;8784;50.94667800;7.08448400;2023-06-26T00:27:12;23.60;68.20
17333;DHT22;8784;50.94667800;7.08448400;2023-06-26T00:29:39;23.60;68.30
17333;DHT22;8784;50.94667800;7.08448400;2023-06-26T00:32:07;23.50;68.60
17333;DHT22;8784;50.94667800;7.08448400;2023-06-26T00:34:35;23.40;68.90
17333;DHT22;8784;50.94667800;7.08448400;2023-06-26T00:37:02;23.30;69.40
17333;DHT22;8784;50.94667800;7.08448400;2023-06-26T00:39:29;23.20;70.10
17333;DHT22;8784;50.94667800;7.08448400;2023-06-26T00:41:56;23.20;70.40
17333;DHT22;8784;50.94667800;7.08448400;2023-06-26T00:44:23;23.10;70.70
17333;DHT22;8784;50.94667800;7.08448400;2023-06-26T00:46:50;23.10;71.00
17333;DHT22;8784;50.94667800;7.08448400;2023-06-26T00:49:18;23.00;71.10
17333;DHT22;8784;50.94667800;7.08448400;2023-06-26T00:51:45;23.00;71.20
17333;DHT22;8784;50.94667800;7.08448400;2023-06-26T00:54:13;22.90;71.50
17333;DHT22;8784;50.94667800;7.08448400;2023-06-26T00:56:45;22.90;71.40
17333;DHT22;8784;50.94667800;7.08448400;2023-06-26T00:59:12;22.80;71.40
17333;DHT22;8784;50.94667800;7.08448400;2023-06-26T01:01:39;22.70;71.20
17333;DHT22;8784;50.94667800;7.08448400;2023-06-26T01:04:06;22.60;71.70
17333;DHT22;8784;50.94667800;7.08448400;2023-06-26T01:06:35;22.40;71.90
17333;DHT22;8784;50.94667800;7.08448400;2023-06-26T01:09:02;22.30;72.40
17333;DHT22;8784;50.94667800;7.08448400;2023-06-26T01:11:29;22.20;72.60
17333;DHT22;8784;50.94667800;7.08448400;2023-06-26T01:13:57;22.00;73.20
17333;DHT22;8784;50.94667800;7.08448400;2023-06-26T01:16:27;22.00;73.60
17333;DHT22;8784;50.94667800;7.08448400;2023-06-26T01:18:56;22.00;73.80
17333;DHT22;8784;50.94667800;7.08448400;2023-06-26T01:21:23;22.00;73.90
17333;DHT22;8784;50.94667800;7.08448400;2023-06-26T01:24:07;22.00;74.10
17333;DHT22;8784;50.94667800;7.08448400;2023-06-26T01:26:38;22.00;74.00
17333;DHT22;8784;50.94667800;7.08448400;2023-06-26T01:29:07;22.00;74.00
17333;DHT22;8784;50.94667800;7.08448400;2023-06-26T01:31:36;22.00;74.20
17333;DHT22;8784;50.94667800;7.08448400;2023-06-26T01:34:03;22.00;74.50
17333;DHT22;8784;50.94667800;7.08448400;2023-06-26T01:36:30;22.00;74.50
17333;DHT22;8784;50.94667800;7.08448400;2023-06-26T01:38:57;22.00;74.70
17333;DHT22;8784;50.94667800;7.08448400;2023-06-26T01:41:24;22.00;75.00
17333;DHT22;8784;50.94667800;7.08448400;2023-06-26T01:44:03;21.90;75.10
17333;DHT22;8784;50.94667800;7.08448400;2023-06-26T01:46:39;21.90;75.20
17333;DHT22;8784;50.94667800;7.08448400;2023-06-26T01:49:12;21.90;75.30
17333;DHT22;8784;50.94667800;7.08448400;2023-06-26T01:51:45;21.90;75.60
17333;DHT22;8784;50.94667800;7.08448400;2023-06-26T01:54:17;21.90;75.30
17333;DHT22;8784;50.94667800;7.08448400;2023-06-26T01:56:45;21.90;75.60
17333;DHT22;8784;50.94667800;7.08448400;2023-06-26T01:59:17;21.90;75.90
17333;DHT22;8784;50.94667800;7.08448400;2023-06-26T02:01:44;21.90;76.00
17333;DHT22;8784;50.94667800;7.08448400;2023-06-26T02:04:11;21.90;76.30
17333;DHT22;8784;50.94667800;7.08448400;2023-06-26T02:06:38;21.90;76.60
17333;DHT22;8784;50.94667800;7.08448400;2023-06-26T02:09:05;21.90;76.80
17333;DHT22;8784;50.94667800;7.08448400;2023-06-26T02:11:33;21.80;77.00
17333;DHT22;8784;50.94667800;7.08448400;2023-06-26T02:14:00;21.80;77.20
17333;DHT22;8784;50.94667800;7.08448400;2023-06-26T02:16:29;21.80;77.30
17333;DHT22;8784;50.94667800;7.08448400;2023-06-26T02:18:56;21.70;77.50
17333;DHT22;8784;50.94667800;7.08448400;2023-06-26T02:21:23;21.70;77.70
17333;DHT22;8784;50.94667800;7.08448400;2023-06-26T02:23:50;21.70;78.00
17333;DHT22;8784;50.94667800;7.08448400;2023-06-26T02:26:17;21.60;78.30
17333;DHT22;8784;50.94667800;7.08448400;2023-06-26T02:28:44;21.70;78.20
17333;DHT22;8784;50.94667800;7.08448400;2023-06-26T02:31:11;21.70;78.20
17333;DHT22;8784;50.94667800;7.08448400;2023-06-26T02:33:39;21.70;78.30
17333;DHT22;8784;50.94667800;7.08448400;2023-06-26T02:36:08;21.70;78.30
17333;DHT22;8784;50.94667800;7.08448400;2023-06-26T02:38:34;21.70;78.40
17333;DHT22;8784;50.94667800;7.08448400;2023-06-26T02:41:01;21.70;78.70
17333;DHT22;8784;50.94667800;7.08448400;2023-06-26T02:43:28;21.60;78.70
17333;DHT22;8784;50.94667800;7.08448400;2023-06-26T02:45:55;21.60;79.20
17333;DHT22;8784;50.94667800;7.08448400;2023-06-26T02:48:22;21.60;79.20
17333;DHT22;8784;50.94667800;7.08448400;2023-06-26T02:50:50;21.60;79.30
17333;DHT22;8784;50.94667800;7.08448400;2023-06-26T02:53:17;21.60;79.60
17333;DHT22;8784;50.94667800;7.08448400;2023-06-26T02:55:44;21.50;79.50
17333;DHT22;8784;50.94667800;7.08448400;2023-06-26T02:58:13;21.50;79.90
17333;DHT22;8784;50.94667800;7.08448400;2023-06-26T03:00:40;21.50;80.00
17333;DHT22;8784;50.94667800;7.08448400;2023-06-26T03:03:07;21.50;79.80
17333;DHT22;8784;50.94667800;7.08448400;2023-06-26T03:05:34;21.50;80.10
17333;DHT22;8784;50.94667800;7.08448400;2023-06-26T03:08:02;21.50;81.10
17333;DHT22;8784;50.94667800;7.08448400;2023-06-26T03:10:29;21.40;80.50
17333;DHT22;8784;50.94667800;7.08448400;2023-06-26T03:12:56;21.40;80.50
17333;DHT22;8784;50.94667800;7.08448400;2023-06-26T03:15:23;21.40;81.60
17333;DHT22;8784;50.94667800;7.08448400;2023-06-26T03:17:50;21.30;81.10
17333;DHT22;8784;50.94667800;7.08448400;2023-06-26T03:20:17;21.30;81.60
17333;DHT22;8784;50.94667800;7.08448400;2023-06-26T03:22:43;21.30;81.60
17333;DHT22;8784;50.94667800;7.08448400;2023-06-26T03:25:12;21.20;81.10
17333;DHT22;8784;50.94667800;7.08448400;2023-06-26T03:27:39;21.20;81.40
17333;DHT22;8784;50.94667800;7.08448400;2023-06-26T03:30:06;21.20;81.60
17333;DHT22;8784;50.94667800;7.08448400;2023-06-26T03:32:33;21.20;81.80
17333;DHT22;8784;50.94667800;7.08448400;2023-06-26T03:35:00;21.30;82.00
17333;DHT22;8784;50.94667800;7.08448400;2023-06-26T03:37:28;21.30;81.90
17333;DHT22;8784;50.94667800;7.08448400;2023-06-26T03:39:55;21.30;82.00
17333;DHT22;8784;50.94667800;7.08448400;2023-06-26T03:42:24;21.40;82.80
17333;DHT22;8784;50.94667800;7.08448400;2023-06-26T03:44:50;21.40;82.10
17333;DHT22;8784;50.94667800;7.08448400;2023-06-26T03:47:17;21.40;82.40
17333;DHT22;8784;50.94667800;7.08448400;2023-06-26T03:49:44;21.40;82.40
17333;DHT22;8784;50.94667800;7.08448400;2023-06-26T03:52:11;21.40;82.90
17333;DHT22;8784;50.94667800;7.08448400;2023-06-26T03:54:38;21.40;83.00
17333;DHT22;8784;50.94667800;7.08448400;2023-06-26T03:57:05;21.40;83.30
17333;DHT22;8784;50.94667800;7.08448400;2023-06-26T03:59:36;21.40;83.30
17333;DHT22;8784;50.94667800;7.08448400;2023-06-26T04:02:03;21.40;83.50
17333;DHT22;8784;50.94667800;7.08448400;2023-06-26T04:04:30;21.40;83.90
17333;DHT22;8784;50.94667800;7.08448400;2023-06-26T04:06:57;21.40;84.30
17333;DHT22;8784;50.94667800;7.08448400;2023-06-26T04:09:24;21.50;84.40
17333;DHT22;8784;50.94667800;7.08448400;2023-06-26T04:11:51;21.60;84.40
17333;DHT22;8784;50.94667800;7.08448400;2023-06-26T04:14:18;21.70;84.50
17333;DHT22;8784;50.94667800;7.08448400;2023-06-26T04:16:46;21.80;84.40
17333;DHT22;8784;50.94667800;7.08448400;2023-06-26T04:19:13;21.80;84.30
17333;DHT22;8784;50.94667800;7.08448400;2023-06-26T04:21:40;21.80;84.60
17333;DHT22;8784;50.94667800;7.08448400;2023-06-26T04:24:07;21.90;85.60
17333;DHT22;8784;50.94667800;7.08448400;2023-06-26T04:26:34;22.00;85.00
17333;DHT22;8784;50.94667800;7.08448400;2023-06-26T04:29:02;22.00;84.80
17333;DHT22;8784;50.94667800;7.08448400;2023-06-26T04:31:29;22.10;85.30
17333;DHT22;8784;50.94667800;7.08448400;2023-06-26T04:33:57;22.20;85.50
17333;DHT22;8784;50.94667800;7.08448400;2023-06-26T04:36:25;22.30;85.70
17333;DHT22;8784;50.94667800;7.08448400;2023-06-26T04:38:54;22.30;85.60
17333;DHT22;8784;50.94667800;7.08448400;2023-06-26T04:41:21;22.40;85.70
17333;DHT22;8784;50.94667800;7.08448400;2023-06-26T04:43:48;22.40;85.70
17333;DHT22;8784;50.94667800;7.08448400;2023-06-26T04:46:15;22.50;85.50
17333;DHT22;8784;50.94667800;7.08448400;2023-06-26T04:48:42;22.50;85.40
17333;DHT22;8784;50.94667800;7.08448400;2023-06-26T04:51:11;22.60;85.40
17333;DHT22;8784;50.94667800;7.08448400;2023-06-26T04:53:38;22.60;85.50
17333;DHT22;8784;50.94667800;7.08448400;2023-06-26T04:56:05;22.80;86.20
17333;DHT22;8784;50.94667800;7.08448400;2023-06-26T04:58:32;22.80;85.50
17333;DHT22;8784;50.94667800;7.08448400;2023-06-26T05:00:59;22.90;85.30
17333;DHT22;8784;50.94667800;7.08448400;2023-06-26T05:03:26;23.10;85.20
17333;DHT22;8784;50.94667800;7.08448400;2023-06-26T05:05:53;23.20;85.00
17333;DHT22;8784;50.94667800;7.08448400;2023-06-26T05:08:23;23.20;84.80
17333;DHT22;8784;50.94667800;7.08448400;2023-06-26T05:10:52;23.30;84.80
17333;DHT22;8784;50.94667800;7.08448400;2023-06-26T05:13:23;23.30;84.70
17333;DHT22;8784;50.94667800;7.08448400;2023-06-26T05:15:51;23.30;84.40
17333;DHT22;8784;50.94667800;7.08448400;2023-06-26T05:18:18;23.30;84.20
17333;DHT22;8784;50.94667800;7.08448400;2023-06-26T05:20:46;23.30;83.60
17333;DHT22;8784;50.94667800;7.08448400;2023-06-26T05:23:13;23.40;83.30
17333;DHT22;8784;50.94667800;7.08448400;2023-06-26T05:25:42;23.40;82.70
17333;DHT22;8784;50.94667800;7.08448400;2023-06-26T05:28:11;23.50;82.50
17333;DHT22;8784;50.94667800;7.08448400;2023-06-26T05:30:39;23.50;82.30
17333;DHT22;8784;50.94667800;7.08448400;2023-06-26T05:33:06;23.60;82.20
17333;DHT22;8784;50.94667800;7.08448400;2023-06-26T05:35:36;23.70;81.90
17333;DHT22;8784;50.94667800;7.08448400;2023-06-26T05:38:03;23.70;81.60
17333;DHT22;8784;50.94667800;7.08448400;2023-06-26T05:40:31;23.80;81.50
17333;DHT22;8784;50.94667800;7.08448400;2023-06-26T05:43:01;23.90;81.60
17333;DHT22;8784;50.94667800;7.08448400;2023-06-26T05:45:28;23.90;81.50
17333;DHT22;8784;50.94667800;7.08448400;2023-06-26T05:47:55;24.00;81.10
17333;DHT22;8784;50.94667800;7.08448400;2023-06-26T05:50:22;24.10;80.80
17333;DHT22;8784;50.94667800;7.08448400;2023-06-26T05:52:50;24.10;80.40
17333;DHT22;8784;50.94667800;7.08448400;2023-06-26T05:55:17;24.20;80.20
17333;DHT22;8784;50.94667800;7.08448400;2023-06-26T05:57:46;24.20;79.70
17333;DHT22;8784;50.94667800;7.08448400;2023-06-26T06:00:15;24.30;79.50
17333;DHT22;8784;50.94667800;7.08448400;2023-06-26T06:02:42;24.50;78.90
17333;DHT22;8784;50.94667800;7.08448400;2023-06-26T06:05:09;24.60;78.40
17333;DHT22;8784;50.94667800;7.08448400;2023-06-26T06:07:37;24.60;78.10
17333;DHT22;8784;50.94667800;7.08448400;2023-06-26T06:10:04;24.60;78.00
17333;DHT22;8784;50.94667800;7.08448400;2023-06-26T06:12:31;24.60;77.90
17333;DHT22;8784;50.94667800;7.08448400;2023-06-26T06:14:58;24.50;77.80
17333;DHT22;8784;50.94667800;7.08448400;2023-06-26T06:17:26;24.40;77.80
17333;DHT22;8784;50.94667800;7.08448400;2023-06-26T06:19:54;24.40;77.90
17333;DHT22;8784;50.94667800;7.08448400;2023-06-26T06:22:20;24.50;77.90
17333;DHT22;8784;50.94667800;7.08448400;2023-06-26T06:24:49;24.70;77.60
17333;DHT22;8784;50.94667800;7.08448400;2023-06-26T06:27:16;24.70;77.30
17333;DHT22;8784;50.94667800;7.08448400;2023-06-26T06:29:43;24.80;77.50
17333;DHT22;8784;50.94667800;7.08448400;2023-06-26T06:32:10;25.00;77.20
17333;DHT22;8784;50.94667800;7.08448400;2023-06-26T06:34:38;25.20;77.00
17333;DHT22;8784;50.94667800;7.08448400;2023-06-26T06:37:05;25.30;76.50
17333;DHT22;8784;50.94667800;7.08448400;2023-06-26T06:39:33;25.60;76.10
17333;DHT22;8784;50.94667800;7.08448400;2023-06-26T06:42:00;25.50;76.40
17333;DHT22;8784;50.94667800;7.08448400;2023-06-26T06:44:26;25.30;75.60
17333;DHT22;8784;50.94667800;7.08448400;2023-06-26T06:46:56;25.10;76.40
17333;DHT22;8784;50.94667800;7.08448400;2023-06-26T06:49:22;24.90;76.40
17333;DHT22;8784;50.94667800;7.08448400;2023-06-26T06:51:51;25.20;76.50
17333;DHT22;8784;50.94667800;7.08448400;2023-06-26T06:54:18;26.30;75.50
17333;DHT22;8784;50.94667800;7.08448400;2023-06-26T06:56:45;27.20;73.80
17333;DHT22;8784;50.94667800;7.08448400;2023-06-26T06:59:12;28.90;72.00
17333;DHT22;8784;50.94667800;7.08448400;2023-06-26T07:01:39;30.90;69.00
17333;DHT22;8784;50.94667800;7.08448400;2023-06-26T07:04:06;31.00;66.30
17333;DHT22;8784;50.94667800;7.08448400;2023-06-26T07:06:33;31.20;65.60
17333;DHT22;8784;50.94667800;7.08448400;2023-06-26T07:09:02;32.90;63.70
17333;DHT22;8784;50.94667800;7.08448400;2023-06-26T07:11:29;34.60;60.60
17333;DHT22;8784;50.94667800;7.08448400;2023-06-26T07:13:56;35.70;58.30
17333;DHT22;8784;50.94667800;7.08448400;2023-06-26T07:16:23;36.00;57.10
17333;DHT22;8784;50.94667800;7.08448400;2023-06-26T07:18:49;36.50;56.40
17333;DHT22;8784;50.94667800;7.08448400;2023-06-26T07:21:17;37.10;54.80
17333;DHT22;8784;50.94667800;7.08448400;2023-06-26T07:23:44;38.10;53.20
17333;DHT22;8784;50.94667800;7.08448400;2023-06-26T07:26:14;39.10;52.40
17333;DHT22;8784;50.94667800;7.08448400;2023-06-26T07:28:41;39.80;50.60
17333;DHT22;8784;50.94667800;7.08448400;2023-06-26T07:31:08;40.50;49.50
17333;DHT22;8784;50.94667800;7.08448400;2023-06-26T07:33:35;41.10;48.30
17333;DHT22;8784;50.94667800;7.08448400;2023-06-26T07:36:02;41.70;47.70
17333;DHT22;8784;50.94667800;7.08448400;2023-06-26T07:38:29;42.10;46.30
17333;DHT22;8784;50.94667800;7.08448400;2023-06-26T07:40:56;42.20;45.30
17333;DHT22;8784;50.94667800;7.08448400;2023-06-26T07:43:24;42.20;45.00
17333;DHT22;8784;50.94667800;7.08448400;2023-06-26T07:45:51;42.60;44.60
17333;DHT22;8784;50.94667800;7.08448400;2023-06-26T07:48:19;43.10;44.00
17333;DHT22;8784;50.94667800;7.08448400;2023-06-26T07:50:46;43.60;43.40
17333;DHT22;8784;50.94667800;7.08448400;2023-06-26T07:53:12;44.00;42.60
17333;DHT22;8784;50.94667800;7.08448400;2023-06-26T07:55:39;44.10;42.10
17333;DHT22;8784;50.94667800;7.08448400;2023-06-26T07:58:07;44.30;41.90
17333;DHT22;8784;50.94667800;7.08448400;2023-06-26T08:00:35;44.60;41.50
17333;DHT22;8784;50.94667800;7.08448400;2023-06-26T08:03:03;44.80;41.10
17333;DHT22;8784;50.94667800;7.08448400;2023-06-26T08:05:30;45.10;40.40
17333;DHT22;8784;50.94667800;7.08448400;2023-06-26T08:07:57;45.40;40.30
17333;DHT22;8784;50.94667800;7.08448400;2023-06-26T08:10:24;45.60;39.80
17333;DHT22;8784;50.94667800;7.08448400;2023-06-26T08:12:51;46.00;39.00
17333;DHT22;8784;50.94667800;7.08448400;2023-06-26T08:15:18;46.40;39.30
17333;DHT22;8784;50.94667800;7.08448400;2023-06-26T08:17:47;46.60;38.30
17333;DHT22;8784;50.94667800;7.08448400;2023-06-26T08:20:16;46.40;38.00
17333;DHT22;8784;50.94667800;7.08448400;2023-06-26T08:22:45;46.80;37.90
17333;DHT22;8784;50.94667800;7.08448400;2023-06-26T08:25:13;46.30;37.50
17333;DHT22;8784;50.94667800;7.08448400;2023-06-26T08:27:40;45.90;37.70
17333;DHT22;8784;50.94667800;7.08448400;2023-06-26T08:30:08;46.20;37.70
17333;DHT22;8784;50.94667800;7.08448400;2023-06-26T08:32:34;46.60;37.20
17333;DHT22;8784;50.94667800;7.08448400;2023-06-26T08:35:03;46.40;37.10
17333;DHT22;8784;50.94667800;7.08448400;2023-06-26T08:37:30;46.30;37.20
17333;DHT22;8784;50.94667800;7.08448400;2023-06-26T08:39:58;46.70;36.90
17333;DHT22;8784;50.94667800;7.08448400;2023-06-26T08:42:25;46.80;36.70
17333;DHT22;8784;50.94667800;7.08448400;2023-06-26T08:44:52;46.50;36.50
17333;DHT22;8784;50.94667800;7.08448400;2023-06-26T08:47:19;44.20;37.20
17333;DHT22;8784;50.94667800;7.08448400;2023-06-26T08:49:50;42.80;38.60
17333;DHT22;8784;50.94667800;7.08448400;2023-06-26T08:52:23;42.80;39.80
17333;DHT22;8784;50.94667800;7.08448400;2023-06-26T08:54:55;43.90;38.80
17333;DHT22;8784;50.94667800;7.08448400;2023-06-26T08:57:26;44.60;38.20
17333;DHT22;8784;50.94667800;7.08448400;2023-06-26T08:59:53;45.30;37.50
17333;DHT22;8784;50.94667800;7.08448400;2023-06-26T09:02:20;44.70;37.60
17333;DHT22;8784;50.94667800;7.08448400;2023-06-26T09:04:48;42.90;38.40
17333;DHT22;8784;50.94667800;7.08448400;2023-06-26T09:07:15;41.10;39.20
17333;DHT22;8784;50.94667800;7.08448400;2023-06-26T09:09:44;39.20;40.70
17333;DHT22;8784;50.94667800;7.08448400;2023-06-26T09:12:11;38.50;41.70
17333;DHT22;8784;50.94667800;7.08448400;2023-06-26T09:14:38;37.20;42.70
17333;DHT22;8784;50.94667800;7.08448400;2023-06-26T09:17:05;36.60;43.80
17333;DHT22;8784;50.94667800;7.08448400;2023-06-26T09:19:32;36.80;44.10
17333;DHT22;8784;50.94667800;7.08448400;2023-06-26T09:22:02;36.90;44.70
17333;DHT22;8784;50.94667800;7.08448400;2023-06-26T09:24:30;37.10;44.50
17333;DHT22;8784;50.94667800;7.08448400;2023-06-26T09:26:58;36.90;44.20
17333;DHT22;8784;50.94667800;7.08448400;2023-06-26T09:29:26;38.00;44.20
17333;DHT22;8784;50.94667800;7.08448400;2023-06-26T09:31:56;38.30;43.50
17333;DHT22;8784;50.94667800;7.08448400;2023-06-26T09:34:30;38.30;43.30
17333;DHT22;8784;50.94667800;7.08448400;2023-06-26T09:36:57;37.70;43.40
17333;DHT22;8784;50.94667800;7.08448400;2023-06-26T09:39:24;37.70;44.00
17333;DHT22;8784;50.94667800;7.08448400;2023-06-26T09:41:51;38.00;44.60
17333;DHT22;8784;50.94667800;7.08448400;2023-06-26T09:44:23;38.40;44.50
17333;DHT22;8784;50.94667800;7.08448400;2023-06-26T09:46:50;38.80;44.00
17333;DHT22;8784;50.94667800;7.08448400;2023-06-26T09:49:18;38.30;43.50
17333;DHT22;8784;50.94667800;7.08448400;2023-06-26T09:51:45;37.30;43.40
17333;DHT22;8784;50.94667800;7.08448400;2023-06-26T09:54:12;36.60;44.20
17333;DHT22;8784;50.94667800;7.08448400;2023-06-26T09:56:42;36.10;44.90
17333;DHT22;8784;50.94667800;7.08448400;2023-06-26T09:59:09;35.60;45.60
17333;DHT22;8784;50.94667800;7.08448400;2023-06-26T10:01:41;35.50;45.80
17333;DHT22;8784;50.94667800;7.08448400;2023-06-26T10:04:08;35.70;45.60
17333;DHT22;8784;50.94667800;7.08448400;2023-06-26T10:06:36;36.00;45.50
17333;DHT22;8784;50.94667800;7.08448400;2023-06-26T10:09:05;36.40;45.10
17333;DHT22;8784;50.94667800;7.08448400;2023-06-26T10:11:37;35.90;45.00
17333;DHT22;8784;50.94667800;7.08448400;2023-06-26T10:14:05;36.00;45.40
17333;DHT22;8784;50.94667800;7.08448400;2023-06-26T10:16:35;35.70;45.20
17333;DHT22;8784;50.94667800;7.08448400;2023-06-26T10:19:06;35.40;45.50
17333;DHT22;8784;50.94667800;7.08448400;2023-06-26T10:21:34;35.60;45.80
17333;DHT22;8784;50.94667800;7.08448400;2023-06-26T10:24:03;35.70;45.10
17333;DHT22;8784;50.94667800;7.08448400;2023-06-26T10:26:35;35.70;45.10
17333;DHT22;8784;50.94667800;7.08448400;2023-06-26T10:29:05;35.60;45.30
17333;DHT22;8784;50.94667800;7.08448400;2023-06-26T10:31:34;35.50;45.00
17333;DHT22;8784;50.94667800;7.08448400;2023-06-26T10:34:02;35.30;45.40
17333;DHT22;8784;50.94667800;7.08448400;2023-06-26T10:36:31;35.00;45.40
17333;DHT22;8784;50.94667800;7.08448400;2023-06-26T10:39:02;34.80;45.50
17333;DHT22;8784;50.94667800;7.08448400;2023-06-26T10:41:36;34.70;45.20
17333;DHT22;8784;50.94667800;7.08448400;2023-06-26T10:44:08;34.10;45.00
17333;DHT22;8784;50.94667800;7.08448400;2023-06-26T10:46:48;33.80;45.70
17333;DHT22;8784;50.94667800;7.08448400;2023-06-26T10:49:15;33.50;45.90
17333;DHT22;8784;50.94667800;7.08448400;2023-06-26T10:51:48;32.90;46.10
17333;DHT22;8784;50.94667800;7.08448400;2023-06-26T10:54:18;32.50;46.50
17333;DHT22;8784;50.94667800;7.08448400;2023-06-26T10:56:46;32.60;47.00
17333;DHT22;8784;50.94667800;7.08448400;2023-06-26T10:59:17;32.80;46.90
17333;DHT22;8784;50.94667800;7.08448400;2023-06-26T11:01:45;32.90;46.40
17333;DHT22;8784;50.94667800;7.08448400;2023-06-26T11:04:13;32.70;46.00
17333;DHT22;8784;50.94667800;7.08448400;2023-06-26T11:06:46;32.40;45.60
17333;DHT22;8784;50.94667800;7.08448400;2023-06-26T11:09:17;32.40;45.60
17333;DHT22;8784;50.94667800;7.08448400;2023-06-26T11:11:58;32.70;46.20
17333;DHT22;8784;50.94667800;7.08448400;2023-06-26T11:14:34;32.90;46.00
17333;DHT22;8784;50.94667800;7.08448400;2023-06-26T11:17:05;32.80;45.90
17333;DHT22;8784;50.94667800;7.08448400;2023-06-26T11:19:32;32.50;45.60
17333;DHT22;8784;50.94667800;7.08448400;2023-06-26T11:22:02;32.30;45.50
17333;DHT22;8784;50.94667800;7.08448400;2023-06-26T11:24:30;31.90;45.70
17333;DHT22;8784;50.94667800;7.08448400;2023-06-26T11:27:02;31.60;46.20
17333;DHT22;8784;50.94667800;7.08448400;2023-06-26T11:29:33;31.30;46.30
17333;DHT22;8784;50.94667800;7.08448400;2023-06-26T11:32:02;31.10;46.40
17333;DHT22;8784;50.94667800;7.08448400;2023-06-26T11:34:31;31.00;46.50
17333;DHT22;8784;50.94667800;7.08448400;2023-06-26T11:36:58;30.90;46.50
17333;DHT22;8784;50.94667800;7.08448400;2023-06-26T11:39:30;30.90;46.40
17333;DHT22;8784;50.94667800;7.08448400;2023-06-26T11:41:58;30.80;46.70
17333;DHT22;8784;50.94667800;7.08448400;2023-06-26T11:44:29;31.00;46.70
17333;DHT22;8784;50.94667800;7.08448400;2023-06-26T11:47:00;30.90;46.90
17333;DHT22;8784;50.94667800;7.08448400;2023-06-26T11:49:29;31.00;46.90
17333;DHT22;8784;50.94667800;7.08448400;2023-06-26T11:51:57;31.00;47.20
17333;DHT22;8784;50.94667800;7.08448400;2023-06-26T11:54:24;31.00;46.90
17333;DHT22;8784;50.94667800;7.08448400;2023-06-26T11:56:54;31.00;46.80
17333;DHT22;8784;50.94667800;7.08448400;2023-06-26T11:59:23;31.00;47.00
17333;DHT22;8784;50.94667800;7.08448400;2023-06-26T12:01:51;30.80;47.40
17333;DHT22;8784;50.94667800;7.08448400;2023-06-26T12:04:20;30.70;47.50
17333;DHT22;8784;50.94667800;7.08448400;2023-06-26T12:06:49;30.50;47.20
17333;DHT22;8784;50.94667800;7.08448400;2023-06-26T12:09:18;30.30;47.10
17333;DHT22;8784;50.94667800;7.08448400;2023-06-26T12:11:48;30.20;47.00
17333;DHT22;8784;50.94667800;7.08448400;2023-06-26T12:14:20;30.10;47.00
17333;DHT22;8784;50.94667800;7.08448400;2023-06-26T12:16:48;30.00;47.20
17333;DHT22;8784;50.94667800;7.08448400;2023-06-26T12:19:15;30.00;47.50
17333;DHT22;8784;50.94667800;7.08448400;2023-06-26T12:21:47;30.10;47.80
17333;DHT22;8784;50.94667800;7.08448400;2023-06-26T12:24:18;30.20;48.40
17333;DHT22;8784;50.94667800;7.08448400;2023-06-26T12:26:46;30.20;47.70
17333;DHT22;8784;50.94667800;7.08448400;2023-06-26T12:29:14;30.30;47.30
17333;DHT22;8784;50.94667800;7.08448400;2023-06-26T12:31:45;30.50;48.30
17333;DHT22;8784;50.94667800;7.08448400;2023-06-26T12:34:13;30.60;48.30
17333;DHT22;8784;50.94667800;7.08448400;2023-06-26T12:36:44;30.60;47.70
17333;DHT22;8784;50.94667800;7.08448400;2023-06-26T12:39:12;30.50;47.60
17333;DHT22;8784;50.94667800;7.08448400;2023-06-26T12:41:48;30.20;47.50
17333;DHT22;8784;50.94667800;7.08448400;2023-06-26T12:44:22;30.20;47.20
17333;DHT22;8784;50.94667800;7.08448400;2023-06-26T12:46:55;30.10;47.40
17333;DHT22;8784;50.94667800;7.08448400;2023-06-26T12:49:30;30.10;47.70
17333;DHT22;8784;50.94667800;7.08448400;2023-06-26T12:51:58;29.90;47.60
17333;DHT22;8784;50.94667800;7.08448400;2023-06-26T12:54:25;29.80;47.50
17333;DHT22;8784;50.94667800;7.08448400;2023-06-26T12:56:52;29.60;47.90
17333;DHT22;8784;50.94667800;7.08448400;2023-06-26T12:59:19;29.60;48.30
17333;DHT22;8784;50.94667800;7.08448400;2023-06-26T13:01:46;29.50;48.20
17333;DHT22;8784;50.94667800;7.08448400;2023-06-26T13:04:14;29.30;48.30
17333;DHT22;8784;50.94667800;7.08448400;2023-06-26T13:06:41;29.20;48.60
17333;DHT22;8784;50.94667800;7.08448400;2023-06-26T13:09:08;29.20;48.50
17333;DHT22;8784;50.94667800;7.08448400;2023-06-26T13:11:36;29.20;48.20
17333;DHT22;8784;50.94667800;7.08448400;2023-06-26T13:14:03;29.20;48.10
17333;DHT22;8784;50.94667800;7.08448400;2023-06-26T13:16:30;29.10;47.80
17333;DHT22;8784;50.94667800;7.08448400;2023-06-26T13:18:58;28.90;47.80
17333;DHT22;8784;50.94667800;7.08448400;2023-06-26T13:21:27;28.80;47.70
17333;DHT22;8784;50.94667800;7.08448400;2023-06-26T13:23:54;28.70;47.90
17333;DHT22;8784;50.94667800;7.08448400;2023-06-26T13:26:22;28.70;48.10
17333;DHT22;8784;50.94667800;7.08448400;2023-06-26T13:28:49;28.70;48.20
17333;DHT22;8784;50.94667800;7.08448400;2023-06-26T13:31:16;28.80;48.20
17333;DHT22;8784;50.94667800;7.08448400;2023-06-26T13:33:44;28.80;47.90
17333;DHT22;8784;50.94667800;7.08448400;2023-06-26T13:36:11;28.70;47.90
17333;DHT22;8784;50.94667800;7.08448400;2023-06-26T13:38:40;28.60;48.30